Accueil
METAR-TAF:

METAR-TAF

Aéroports :

Culiacán, Mexique

latitude: 24-49N, longitude: 107-24W, altitude: 39 m

Observation

Le bulletin a été fait il y a 44 minutes, à 21:41 UTC
Vent 5 kt de ouest
Température 40°C
Humidité 22%
Pression 1009 hPa
Visibilité: 16.1 km
Ciel clair

METAR: MMCL 232141Z 27005KT 10SM SKC 40/14 A2981

Heure: 16:25 (22:25 UTC)

Prévision

Le bulletin a été fait il y a 5 heures et 31 minutes, à 16:54 UTC
Prévision valable du 23 à 18 UTC au 24 à 18 UTC
Vent 8 kt de sud-ouest
Visibilité: 10 km
Ciel clair
A partir de 24 à 0300 UTC
Vent 6 kt de est/nord-est
Visibilité: 10 km
Ciel clair
A partir de 24 à 1600 UTC
Vent 6 kt de ouest/sud-ouest
Visibilité: 10 km
Ciel clair

TAF: MMCL 231654Z 2318/2418 23008KT P6SM SKC FM240300 06006KT P6SM SKC FM241600 25006KT P6SM SKC

Observations et prévisions météorologiques de plus de 4000 aéroports (messages METAR et TAF).

Les stations disponibles sont représentées par des disques jaunes et rouges sur la carte.

Passer la souris dessus pour voir le nom de la station.

Cliquer dessus pour voir les observations et prévisions météorologiques.

Pour changer de carte: cliquez sur les boutons verts avec une croix noire pour zoomer, sur le bouton vert avec un tiret pour effectuer un zoom arrière, ou sur les flèches vertes pour les cartes adjacentes.


METAR-TAF: